Vladivostok International Airport
UHWW : now visible

Aeroporto :











RITROVATECI SU...

 
LOGIN :

Iscrizione | Disclaimer

   EN    FR    IT 

 









Sommario :    VFR   VFR Marginale   IFR   IFR Intensivo   IFR Molto Intensivo
Visibilità : 
Base nubi : 
>= 8 km
>= 3000ft
5 / 8 km
1000 / 3000 ft
1500m / 5 km
500 / 1000 ft
800 / 1500m
200 / 500 ft
< 800m
< 200 ft
Simboli :   Temporali  Nebbia  Neve Forte  Precipitazioni Forti  Vento > 20 kt






- Altitudine del aeroporto : 46 ft
- Codice IATA : VVO


UHWW - Vladivostok International

ULTIMO METAR :
  • 150430Z 11001MPS 9999 BKN030 M03/M13 Q1028 R25L/0///70 NOSIG RMK QFE770

METARs OBSOLETI :
  • 150400Z 00000MPS 9999 BKN030 M04/M13 Q1029 R25L/0///70 NOSIG RMK QFE770
  • 150330Z 25002MPS 9999 SCT030 M05/M13 Q1029 R25L/0///70 NOSIG RMK QFE771
  • 150300Z 24002MPS 9999 NSC M05/M13 Q1030 R25L/0///70 NOSIG RMK QFE771
  • 150230Z 00000MPS 9999 NSC M07/M14 Q1030 R25L/0///70 NOSIG RMK QFE771
  • 150200Z 04002MPS 9999 NSC M09/M14 Q1030 R25L/0///70 NOSIG RMK QFE771
  • 150130Z 35002MPS 9999 NSC M11/M15 Q1031 R25L/0///70 NOSIG RMK QFE772

TAF AMD TAF UHWW
Valido dal 15 a 04 ore il 16 a 03 ore UTC


150355Z 1504/1603 22003MPS 9999 BKN012 BKN030CB
TEMPO 1504/1508 3500 -SHSN HZ
FM150800 16003MPS 3100 BR BKN011 BKN017CB
BECMG 1516/1518 35003MPS
BECMG 1523/1602 22003MPS



MetMap, La meteo Aeronautica in un colpo d'occhio ! - Copyright ORBIFLY Dicembre 2007 - Disclaimer

ORBIFLY MET'MAP TEAM :

Programmazione e sviluppo : Alexandra Zaïnal
Concezione : Baudouin d'Aumeries
Aiuto per la programmazione : Marc-Olivier Méhu
Supporto tecnico e logistico : Manuel Goepfert
Aiuto per la traduzione : Arnaldo La Scala

Contatto : metmap@orbifly.com




FONTI E CREDITI :

   NOAA       Earth
Advisory